Nearby METAR Reports

 

KFRG - , , USA
Distance from station: SSW 12mi, 20km
Updated: 10/20/2017 9:53am
Clear
Clear
 Wind from NW
Wind: NW 9 mph , 15 km/h
Temperature: 64°F , 18°C
Dew Point: 45°F , 7°C
Humidity: 49%
Barometer: 30.16 inHg , 1021.3 hPa
Clouds: Clear
Visibility: 10 miles , 16 km
2017/10/20 13:53 KFRG 201353Z 32008KT 10SM CLR 18/07 A3016 RMK AO2 SLP213 T01780067
KISP - , , USA
Distance from station: ESE 14mi, 23km
Updated: 10/20/2017 9:56am
Few Clouds
Few Clouds
 Wind from NW
Wind: NW 12 mph , 19 km/h, Gust: 22 mph , 35 km/h
Temperature: 64°F , 18°C
Dew Point: 46°F , 8°C
Humidity: 52%
Barometer: 30.15 inHg , 1021 hPa
Clouds: Few Clouds
Visibility: 10 miles , 16 km
Cloud details: Few Clouds 25000 ft
2017/10/20 13:56 KISP 201356Z 32010G19KT 10SM FEW250 18/08 A3015 RMK AO2 SLP208 T01830078
 
KBDR - , , USA
Distance from station: NNE 21mi, 34km
Updated: 10/20/2017 9:52am
Clear
Clear
 Wind from NW
Wind: NW 12 mph , 19 km/h
Temperature: 64°F , 18°C
Dew Point: 43°F , 6°C
Humidity: 46%
Barometer: 30.15 inHg , 1021 hPa
Clouds: Clear
Visibility: 10 miles , 16 km
2017/10/20 13:52 KBDR 201352Z 31010KT 10SM CLR 18/06 A3015 RMK AO2 SLP208 T01780056
KHPN - , , USA
Distance from station: WNW 22mi, 35km
Updated: 10/20/2017 9:56am
Clear
Clear
 Wind from WNW
Wind: WNW 10 mph , 17 km/h
Temperature: 63°F , 17°C
Dew Point: 37°F , 3°C
Humidity: 39%
Barometer: 30.16 inHg , 1021.3 hPa
Clouds: Clear
Visibility: 10 miles , 16 km
2017/10/20 13:56 KHPN 201356Z 30009KT 10SM CLR 17/03 A3016 RMK AO2 SLP211 T01670033
 
KHWV - , , USA
Distance from station: ESE 26mi, 41km
Updated: 10/20/2017 9:56am
Clear
Clear
 Wind from NNW
Wind: NNW 12 mph , 19 km/h
Temperature: 66°F , 19°C
Dew Point: 48°F , 9°C
Humidity: 52%
Barometer: 30.15 inHg , 1021 hPa
Clouds: Clear
Visibility: 10 miles , 16 km
2017/10/20 13:56 KHWV 201356Z AUTO 33010KT 10SM CLR 19/09 A3015 RMK AO2 SLP209 T01940094
KJFK - , , USA
Distance from station: SW 29mi, 46km
Updated: 10/20/2017 9:51am
Partly cloudy
Partly cloudy
 Wind from NW
Wind: NW 15 mph , 24 km/h
Temperature: 64°F , 18°C
Dew Point: 37°F , 3°C
Humidity: 37%
Barometer: 30.18 inHg , 1022 hPa
Clouds: Partly cloudy
Visibility: 10 miles , 16 km
Cloud details: Partly cloudy 25000 ft
2017/10/20 13:51 KJFK 201351Z 31013KT 10SM SCT250 18/03 A3018 RMK AO2 SLP220 T01830033
 
KLGA - , , USA
Distance from station: WSW 29mi, 47km
Updated: 10/20/2017 9:51am
Few Clouds
Few Clouds
 Wind from NW
Wind: NW 12 mph , 19 km/h
Temperature: 63°F , 17°C
Dew Point: 39°F , 4°C
Humidity: 42%
Barometer: 30.17 inHg , 1021.7 hPa
Clouds: Few Clouds
Visibility: 10 miles , 16 km
Cloud details: Few Clouds 25000 ft
2017/10/20 13:51 KLGA 201351Z 31010KT 10SM FEW250 17/04 A3017 RMK AO2 SLP217 T01720044